Time;durP1;ratioP1;P1;durP2;ratioP2;P2;SDS_P1;SDS_P2;PMS_P1;PMS_P2;Temp;Humidity;BMP_temperature;BMP_pressure;BME280_temperature;BME280_humidity;BME280_pressure;Samples;Min_cycle;Max_cycle;Signal;HPM_P1;HPM_P2
2024/03/27 00:00:58;;;;;;;8.40;4.80;;;;;;;6.90;63.36;97093.56;226538;1255;22655;-73
2024/03/27 00:06:00;;;;;;;8.80;5.50;;;;;;;6.97;62.88;97092.54;226541;1270;22986;-73
2024/03/27 00:11:03;;;;;;;9.40;5.30;;;;;;;6.99;62.67;97097.23;226582;1274;22557;-73
2024/03/27 00:16:05;;;;;;;8.10;4.80;;;;;;;7.01;62.83;97089.05;226555;1271;25456;-72
2024/03/27 00:21:06;;;;;;;8.70;4.80;;;;;;;7.04;62.76;97082.98;226644;1271;22542;-72
2024/03/27 00:26:08;;;;;;;7.70;4.20;;;;;;;7.05;62.21;97082.34;226581;1274;24236;-73
2024/03/27 00:31:10;;;;;;;7.40;4.20;;;;;;;7.09;61.99;97068.98;226558;1274;22659;-72
2024/03/27 00:36:12;;;;;;;8.10;5.10;;;;;;;7.14;62.42;97063.63;226584;1271;22542;-74
2024/03/27 00:41:13;;;;;;;10.50;6.10;;;;;;;7.14;62.35;97053.73;226565;1274;22729;-73
2024/03/27 00:46:15;;;;;;;9.40;5.70;;;;;;;7.08;62.40;97039.79;226639;1271;22538;-72
2024/03/27 00:51:17;;;;;;;8.20;4.60;;;;;;;7.04;62.21;97041.56;226606;1262;22535;-74
2024/03/27 00:56:21;;;;;;;9.30;5.00;;;;;;;7.05;62.11;97034.63;226593;1271;22546;-74
2024/03/27 01:01:23;;;;;;;7.50;5.00;;;;;;;7.07;62.28;97029.85;226582;1271;22546;-73
2024/03/27 01:06:25;;;;;;;8.90;5.80;;;;;;;7.05;61.96;97025.65;226644;1271;24357;-72
2024/03/27 01:11:27;;;;;;;9.00;5.90;;;;;;;6.97;62.50;97018.26;226595;1271;22558;-72
2024/03/27 01:16:29;;;;;;;13.80;6.30;;;;;;;6.86;62.42;97013.54;226563;1272;22632;-73
2024/03/27 01:21:31;;;;;;;10.80;6.20;;;;;;;6.72;62.55;97009.39;226510;1274;22551;-72
2024/03/27 01:26:33;;;;;;;10.60;6.40;;;;;;;6.62;62.87;97001.88;226585;1271;22544;-72
2024/03/27 01:31:34;;;;;;;9.50;5.80;;;;;;;6.51;63.08;96996.81;226635;1274;22583;-73
2024/03/27 01:36:36;;;;;;;13.80;7.00;;;;;;;6.44;63.04;96998.05;226544;1271;22556;-73
2024/03/27 01:41:38;;;;;;;13.10;7.30;;;;;;;6.37;63.00;96991.77;226599;1272;22553;-73
2024/03/27 01:46:39;;;;;;;12.10;7.30;;;;;;;6.30;62.90;96985.17;226654;1274;22959;-74
2024/03/27 01:51:42;;;;;;;11.50;6.10;;;;;;;6.25;63.04;96979.31;226599;1274;22534;-73
2024/03/27 01:56:45;;;;;;;10.90;6.50;;;;;;;6.26;63.17;96970.64;226573;1271;23229;-73
2024/03/27 02:01:48;;;;;;;10.00;6.40;;;;;;;6.28;63.57;96968.46;226473;1274;22550;-72
2024/03/27 02:06:51;;;;;;;9.70;6.30;;;;;;;6.23;63.54;96968.79;226628;1274;22577;-74
2024/03/27 02:11:53;;;;;;;9.10;5.80;;;;;;;6.10;63.50;96971.13;226586;1274;22563;-73
2024/03/27 02:16:55;;;;;;;11.30;5.90;;;;;;;5.93;63.75;96962.91;226643;1251;24263;-74
2024/03/27 02:22:06;;;;;;;9.10;5.40;;;;;;;5.76;64.08;96948.79;226560;1271;22543;-73
2024/03/27 02:27:08;;;;;;;9.50;5.60;;;;;;;5.62;64.54;96943.06;226574;1271;22540;-73
2024/03/27 02:32:10;;;;;;;8.60;5.50;;;;;;;5.49;65.03;96940.09;226521;1271;22526;-73
2024/03/27 02:37:11;;;;;;;8.50;5.40;;;;;;;5.35;65.45;96936.85;226527;1272;22541;-73
2024/03/27 02:42:13;;;;;;;8.70;5.50;;;;;;;5.23;65.91;96940.66;226529;1269;183844;-73
2024/03/27 02:47:15;;;;;;;9.70;5.20;;;;;;;5.13;66.07;96943.39;226558;1274;22695;-72
2024/03/27 02:52:17;;;;;;;8.30;4.90;;;;;;;5.11;66.35;96940.77;226596;1271;22539;-73
2024/03/27 02:57:18;;;;;;;7.40;4.20;;;;;;;5.14;66.70;96933.53;226613;1274;22539;-73
2024/03/27 03:02:20;;;;;;;8.20;5.60;;;;;;;5.19;66.54;96928.27;226600;1271;24981;-72
2024/03/27 03:07:22;;;;;;;8.40;5.30;;;;;;;5.27;66.31;96932.58;226591;1274;22521;-73
2024/03/27 03:12:24;;;;;;;6.00;4.80;;;;;;;5.35;66.38;96929.36;226558;1274;22597;-73
2024/03/27 03:17:25;;;;;;;7.60;4.80;;;;;;;5.42;66.66;96925.45;226585;1271;22554;-73
2024/03/27 03:22:27;;;;;;;8.20;4.80;;;;;;;5.43;66.47;96920.06;226614;1270;22564;-73
2024/03/27 03:27:29;;;;;;;8.20;4.90;;;;;;;5.49;66.13;96925.30;226584;1271;24354;-73
2024/03/27 03:32:31;;;;;;;7.00;5.00;;;;;;;5.56;66.51;96916.31;226538;1271;22603;-73
2024/03/27 03:37:32;;;;;;;8.40;4.80;;;;;;;5.65;66.62;96909.86;226583;1274;22535;-73
2024/03/27 03:42:34;;;;;;;8.40;5.20;;;;;;;5.75;66.36;96913.04;226599;1272;22535;-73
2024/03/27 03:47:36;;;;;;;6.50;4.50;;;;;;;5.77;65.93;96915.59;226529;1274;22640;-73
2024/03/27 03:52:37;;;;;;;10.70;5.00;;;;;;;5.77;65.70;96907.23;226572;1270;23475;-73
2024/03/27 03:57:41;;;;;;;8.90;5.00;;;;;;;5.80;65.64;96907.34;226567;1271;22535;-73
2024/03/27 04:02:42;;;;;;;9.20;5.20;;;;;;;5.80;65.67;96914.64;226573;1274;22538;-73
2024/03/27 04:07:47;;;;;;;8.70;5.10;;;;;;;5.74;65.75;96909.33;226543;1274;22541;-73
2024/03/27 04:12:49;;;;;;;7.30;4.40;;;;;;;5.67;65.82;96903.96;226549;1274;22531;-73
2024/03/27 04:17:50;;;;;;;8.00;4.90;;;;;;;5.67;66.25;96903.04;226556;1273;22739;-73
2024/03/27 04:22:52;;;;;;;9.30;4.80;;;;;;;5.70;66.26;96904.29;226594;1273;22898;-73
2024/03/27 04:27:54;;;;;;;6.00;4.10;;;;;;;5.72;66.23;96901.35;226596;1274;22541;-73
2024/03/27 04:32:56;;;;;;;7.50;4.50;;;;;;;5.79;66.21;96895.54;226589;1272;24210;-73
2024/03/27 04:37:58;;;;;;;9.60;4.60;;;;;;;5.86;65.93;96890.90;226545;1271;22566;-73
2024/03/27 04:43:00;;;;;;;8.10;4.60;;;;;;;5.95;65.44;96884.45;226573;1271;22546;-73
2024/03/27 04:48:02;;;;;;;6.80;4.10;;;;;;;6.06;65.37;96877.00;226565;1271;26030;-73
2024/03/27 04:53:03;;;;;;;7.90;4.30;;;;;;;6.13;64.90;96877.02;226595;1274;22567;-73
2024/03/27 04:58:05;;;;;;;7.60;4.20;;;;;;;6.12;64.72;96875.40;226606;1274;22559;-73
2024/03/27 05:03:07;;;;;;;6.60;4.00;;;;;;;6.10;64.54;96882.30;226557;1274;22777;-73
2024/03/27 05:08:08;;;;;;;7.70;4.30;;;;;;;6.10;64.29;96882.86;226578;1271;22604;-73
2024/03/27 05:13:11;;;;;;;9.20;4.90;;;;;;;6.11;64.20;96885.20;226586;1274;22533;-73
2024/03/27 05:18:12;;;;;;;8.70;4.20;;;;;;;6.23;64.44;96877.99;226492;1271;22610;-73
2024/03/27 05:23:14;;;;;;;7.50;4.60;;;;;;;6.33;64.38;96877.02;226558;1272;24796;-73
2024/03/27 05:28:16;;;;;;;7.30;4.30;;;;;;;6.45;64.35;96867.86;226597;1271;22676;-73
2024/03/27 05:33:18;;;;;;;8.10;4.70;;;;;;;6.58;64.46;96859.68;226565;1274;22573;-73
2024/03/27 05:38:20;;;;;;;7.20;4.00;;;;;;;6.68;63.92;96856.52;226570;1274;26382;-74
2024/03/27 05:43:22;;;;;;;6.20;3.60;;;;;;;6.75;63.90;96861.85;226587;1272;22566;-73
2024/03/27 05:48:24;;;;;;;5.60;3.70;;;;;;;6.84;63.60;96861.45;226449;1271;22549;-73
2024/03/27 05:53:26;;;;;;;7.30;4.40;;;;;;;6.96;63.50;96860.83;226616;1271;22547;-73
2024/03/27 05:58:28;;;;;;;8.50;4.70;;;;;;;7.09;63.72;96857.72;226545;1274;22545;-72
2024/03/27 06:03:29;;;;;;;7.00;4.40;;;;;;;7.15;63.97;96854.20;226499;1274;22557;-72
2024/03/27 06:08:32;;;;;;;12.10;5.60;;;;;;;7.30;64.10;96850.72;226562;1273;25269;-72
2024/03/27 06:13:34;;;;;;;11.60;5.80;;;;;;;7.49;63.86;96849.17;226754;1271;22558;-72
2024/03/27 06:18:36;;;;;;;8.70;5.30;;;;;;;7.76;64.18;96847.80;226767;1274;22551;-72
2024/03/27 06:23:37;;;;;;;9.30;5.20;;;;;;;7.97;63.67;96847.24;226544;1275;22706;-72
2024/03/27 06:28:39;;;;;;;9.50;4.20;;;;;;;8.17;63.81;96835.77;226581;1274;25972;-72
2024/03/27 06:33:41;;;;;;;9.70;5.20;;;;;;;8.45;63.67;96836.11;226560;1274;22549;-72
2024/03/27 06:38:43;;;;;;;10.10;5.20;;;;;;;8.75;63.06;96837.70;226518;1274;25295;-71
2024/03/27 06:43:47;;;;;;;10.80;5.00;;;;;;;9.05;62.83;96839.80;226529;1266;22590;-73
2024/03/27 06:48:56;;;;;;;9.90;4.10;;;;;;;9.34;62.57;96839.84;226633;1272;22563;-71
2024/03/27 06:53:58;;;;;;;5.00;3.40;;;;;;;9.68;62.53;96837.44;226348;1251;22720;-72
2024/03/27 06:59:00;;;;;;;7.00;3.30;;;;;;;10.00;63.03;96823.33;226328;1264;23546;-74
2024/03/27 07:04:03;;;;;;;7.20;3.60;;;;;;;10.32;63.21;96814.17;226341;1267;22563;-76
2024/03/27 07:09:05;;;;;;;7.90;2.80;;;;;;;10.66;63.21;96809.34;226046;1261;22538;-72
2024/03/27 07:14:06;;;;;;;6.40;2.70;;;;;;;11.04;63.14;96810.60;226103;1267;22522;-71
2024/03/27 07:19:08;;;;;;;4.90;2.70;;;;;;;11.40;63.15;96804.52;226117;1264;26162;-73
2024/03/27 07:24:10;;;;;;;6.20;2.40;;;;;;;11.73;63.04;96803.48;225998;1257;22599;-72
2024/03/27 07:29:11;;;;;;;4.80;2.40;;;;;;;12.04;62.56;96795.01;226116;1252;22585;-71
2024/03/27 07:34:14;;;;;;;4.40;2.50;;;;;;;12.31;62.19;96791.10;226122;1254;24280;-72
2024/03/27 07:39:17;;;;;;;3.20;2.30;;;;;;;12.55;61.91;96788.23;225947;1250;22573;-71
2024/03/27 07:44:19;;;;;;;4.10;2.20;;;;;;;12.78;61.43;96794.24;225894;1274;22573;-72
2024/03/27 07:49:21;;;;;;;4.70;2.30;;;;;;;12.95;61.27;96801.61;225857;1267;25301;-71
2024/03/27 07:54:22;;;;;;;3.30;2.30;;;;;;;13.13;61.15;96804.70;225947;1264;22550;-71
2024/03/27 07:59:24;;;;;;;7.60;2.80;;;;;;;13.35;61.08;96796.73;225969;1266;22945;-71
2024/03/27 08:04:26;;;;;;;5.80;2.70;;;;;;;13.58;60.87;96802.18;226182;1252;22660;-71
2024/03/27 08:09:27;;;;;;;8.90;2.70;;;;;;;13.79;60.78;96799.45;225978;1261;22537;-72
2024/03/27 08:14:29;;;;;;;4.30;2.50;;;;;;;13.96;60.20;96805.44;225937;1264;22554;-72
2024/03/27 08:19:32;;;;;;;5.70;2.60;;;;;;;14.12;60.05;96809.98;225927;1254;25291;-72
2024/03/27 08:24:34;;;;;;;5.70;2.60;;;;;;;14.27;59.81;96798.83;225962;1267;22647;-72
2024/03/27 08:29:36;;;;;;;3.70;2.40;;;;;;;14.43;59.88;96808.63;226103;1270;22530;-71
2024/03/27 08:34:38;;;;;;;4.10;2.70;;;;;;;14.56;59.52;96799.80;225928;1267;24280;-72
2024/03/27 08:39:42;;;;;;;4.10;2.60;;;;;;;14.72;59.72;96786.70;226010;1270;22566;-71
2024/03/27 08:44:43;;;;;;;4.10;2.50;;;;;;;14.85;59.53;96777.52;226091;1254;22596;-72
2024/03/27 08:49:45;;;;;;;3.80;2.30;;;;;;;14.97;59.28;96785.47;226205;1267;22564;-72
2024/03/27 08:54:47;;;;;;;4.00;2.70;;;;;;;15.11;59.50;96786.11;226211;1267;22553;-72
2024/03/27 08:59:48;;;;;;;3.30;2.20;;;;;;;15.26;59.47;96791.76;225908;1267;22550;-73
2024/03/27 09:04:51;;;;;;;3.30;2.30;;;;;;;15.41;59.07;96789.14;226134;1261;23102;-72
2024/03/27 09:09:52;;;;;;;6.00;2.90;;;;;;;15.53;59.16;96790.99;226091;1251;22558;-75
2024/03/27 09:14:54;;;;;;;5.40;2.40;;;;;;;15.70;58.98;96784.66;226134;1263;22561;-73
2024/03/27 09:19:56;;;;;;;5.30;2.20;;;;;;;15.86;59.17;96779.88;226214;1251;22589;-72
2024/03/27 09:24:58;;;;;;;3.30;2.30;;;;;;;16.03;59.35;96778.87;226182;1253;25464;-75
2024/03/27 09:30:00;;;;;;;3.40;1.90;;;;;;;16.17;58.96;96784.10;226296;1267;22550;-72
2024/03/27 09:35:05;;;;;;;4.00;1.90;;;;;;;16.29;58.78;96783.77;226206;1267;22554;-72
2024/03/27 09:40:08;;;;;;;2.50;2.00;;;;;;;16.47;58.77;96783.69;226100;1254;22536;-72
2024/03/27 09:45:11;;;;;;;4.20;1.90;;;;;;;16.65;58.65;96785.27;226142;1269;22573;-72
2024/03/27 09:50:13;;;;;;;3.10;1.90;;;;;;;16.81;58.52;96787.73;225913;1267;22621;-73
2024/03/27 09:55:18;;;;;;;4.50;2.20;;;;;;;16.95;58.38;96790.15;225964;1251;22575;-74
2024/03/27 10:00:20;;;;;;;2.40;1.60;;;;;;;17.06;57.97;96783.89;225919;1267;22611;-73
2024/03/27 10:05:23;;;;;;;3.20;1.90;;;;;;;17.17;58.19;96784.81;225970;1259;22552;-72
2024/03/27 10:10:26;;;;;;;3.60;1.80;;;;;;;17.26;57.93;96782.66;226220;1272;22587;-72
2024/03/27 10:15:28;;;;;;;3.90;2.20;;;;;;;17.38;58.15;96783.69;226181;1271;25335;-72
2024/03/27 10:20:30;;;;;;;3.00;1.40;;;;;;;17.50;57.84;96787.91;226227;1254;22578;-71
2024/03/27 10:25:32;;;;;;;1.60;1.30;;;;;;;17.61;57.85;96790.17;226367;1251;22543;-72
2024/03/27 10:30:35;;;;;;;2.60;2.00;;;;;;;17.70;57.75;96787.96;226394;1267;23321;-73
2024/03/27 10:35:37;;;;;;;3.60;2.00;;;;;;;17.76;57.33;96784.54;226383;1267;22553;-73
2024/03/27 10:40:40;;;;;;;3.20;1.40;;;;;;;17.80;57.38;96786.48;226331;1251;22557;-72
2024/03/27 10:45:43;;;;;;;2.30;1.50;;;;;;;17.83;56.95;96787.02;226358;1251;25317;-72
2024/03/27 10:50:46;;;;;;;3.70;1.10;;;;;;;17.79;56.28;96787.71;226361;1254;22574;-73
2024/03/27 10:55:49;;;;;;;2.50;1.30;;;;;;;17.66;56.54;96776.95;226200;1259;22583;-72
2024/03/27 11:00:51;;;;;;;2.30;1.50;;;;;;;17.70;56.99;96778.02;226355;1270;22542;-74
2024/03/27 11:05:53;;;;;;;4.50;1.50;;;;;;;17.74;56.88;96774.67;226172;1270;24297;-72
2024/03/27 11:11:09;;;;;;;3.80;1.30;;;;;;;17.79;56.76;96775.37;226334;1271;22530;-72
2024/03/27 11:16:12;;;;;;;4.00;1.60;;;;;;;17.90;57.07;96768.57;226497;1266;22554;-73
2024/03/27 11:21:14;;;;;;;3.90;1.50;;;;;;;17.96;56.77;96768.66;226582;1267;22939;-71
2024/03/27 11:26:32;;;;;;;4.20;1.60;;;;;;;18.00;56.68;96760.06;226326;1261;22549;-80
2024/03/27 11:31:40;;;;;;;2.80;1.40;;;;;;;18.09;56.69;96755.90;226372;1270;22542;-72
2024/03/27 11:36:42;;;;;;;1.40;1.10;;;;;;;18.15;56.26;96745.08;226450;1274;22683;-73
2024/03/27 11:41:48;;;;;;;5.70;1.40;;;;;;;18.23;56.26;96744.13;226341;1259;22681;-72
2024/03/27 11:46:50;;;;;;;2.40;1.10;;;;;;;18.27;55.72;96740.21;226369;1266;22603;-74
2024/03/27 11:51:52;;;;;;;2.50;1.70;;;;;;;18.24;55.53;96737.27;226416;1267;22545;-73
2024/03/27 11:56:54;;;;;;;5.10;1.30;;;;;;;18.26;55.38;96729.10;226441;1267;24410;-73
2024/03/27 12:01:56;;;;;;;2.60;1.30;;;;;;;18.24;54.93;96730.33;226411;1266;22563;-74
2024/03/27 12:06:58;;;;;;;2.50;1.30;;;;;;;18.23;54.94;96734.19;226329;1268;22846;-73
2024/03/27 12:12:00;;;;;;;2.60;1.50;;;;;;;18.23;55.26;96728.94;226325;1271;22566;-73
2024/03/27 12:17:12;;;;;;;2.50;1.70;;;;;;;18.27;55.31;96718.34;226439;1269;22574;-74
2024/03/27 12:22:14;;;;;;;2.90;1.50;;;;;;;18.35;55.59;96709.01;226348;1259;24801;-76
2024/03/27 12:27:23;;;;;;;3.40;1.80;;;;;;;18.45;55.80;96713.20;226407;1270;22543;-74
2024/03/27 12:32:27;;;;;;;3.40;1.30;;;;;;;18.56;55.46;96711.27;226374;1266;22565;-73
2024/03/27 12:37:29;;;;;;;3.20;1.30;;;;;;;18.66;55.06;96702.11;226508;1267;23269;-73
2024/03/27 12:42:31;;;;;;;2.80;1.70;;;;;;;18.79;55.25;96707.05;226350;1252;25498;-73
2024/03/27 12:47:32;;;;;;;3.40;1.60;;;;;;;18.88;54.95;96705.02;226381;1267;22679;-73
2024/03/27 13:04:41;;;;;;;3.60;1.60;;;;;;;19.12;54.68;96693.13;219757;1303;545505;-75
2024/03/27 13:09:43;;;;;;;4.00;1.70;;;;;;;19.29;54.40;96682.07;224555;1273;22650;-76
2024/03/27 13:14:45;;;;;;;3.90;1.80;;;;;;;19.38;53.99;96673.23;224471;1266;172343;-77
2024/03/27 13:19:47;;;;;;;2.80;1.80;;;;;;;19.47;54.13;96670.40;225317;1260;23627;-75
2024/03/27 13:24:52;;;;;;;1.90;1.50;;;;;;;19.72;54.46;96664.42;225483;1276;22567;-75
2024/03/27 13:29:54;;;;;;;4.80;2.20;;;;;;;19.77;53.64;96651.83;225416;1273;22661;-75
2024/03/27 13:34:57;;;;;;;3.40;1.70;;;;;;;19.69;53.68;96658.14;225365;1279;22553;-75
2024/03/27 13:39:59;;;;;;;2.80;1.20;;;;;;;19.49;53.43;96658.24;225510;1267;22547;-74
2024/03/27 13:45:00;;;;;;;3.50;1.00;;;;;;;19.20;53.25;96652.08;225388;1272;22579;-72
2024/03/27 13:50:04;;;;;;;3.30;1.40;;;;;;;18.90;53.18;96648.58;225490;1267;22615;-75
2024/03/27 13:55:07;;;;;;;5.00;1.70;;;;;;;18.68;53.61;96637.23;225462;1273;22556;-74
2024/03/27 14:00:11;;;;;;;1.80;1.10;;;;;;;18.59;53.84;96635.17;225447;1257;22532;-75
2024/03/27 14:05:14;;;;;;;3.30;1.20;;;;;;;18.64;54.07;96624.09;225696;1276;22535;-74
2024/03/27 14:10:15;;;;;;;2.20;1.10;;;;;;;18.80;54.12;96616.06;225808;1276;25425;-75
2024/03/27 14:15:19;;;;;;;1.80;1.10;;;;;;;18.93;53.79;96612.73;225722;1272;23015;-74
2024/03/27 14:20:21;;;;;;;3.30;1.20;;;;;;;18.96;53.35;96609.69;225562;1266;22589;-75
2024/03/27 14:25:23;;;;;;;3.20;1.10;;;;;;;19.01;53.42;96609.11;225738;1270;22603;-77
2024/03/27 14:30:25;;;;;;;2.60;1.00;;;;;;;19.16;53.65;96605.23;225634;1273;22599;-78
2024/03/27 14:35:27;;;;;;;2.50;1.00;;;;;;;19.31;53.41;96596.54;225492;1254;22572;-75
2024/03/27 14:40:29;;;;;;;1.50;1.20;;;;;;;19.43;53.19;96593.21;225595;1259;22573;-75
2024/03/27 14:45:31;;;;;;;3.30;1.50;;;;;;;19.58;53.41;96589.63;225700;1257;22553;-78
2024/03/27 14:50:33;;;;;;;3.20;1.70;;;;;;;19.72;53.35;96591.31;225550;1256;25508;-76
2024/03/27 14:55:35;;;;;;;3.30;1.70;;;;;;;19.77;53.22;96589.75;225857;1270;22546;-76
2024/03/27 15:00:36;;;;;;;5.20;2.00;;;;;;;19.71;53.00;96583.52;225646;1270;22636;-76
2024/03/27 15:05:38;;;;;;;1.80;1.40;;;;;;;19.59;52.84;96585.48;225698;1274;22534;-76
2024/03/27 15:10:40;;;;;;;3.70;1.50;;;;;;;19.44;52.91;96573.38;225431;1278;22535;-76
2024/03/27 15:15:42;;;;;;;1.40;0.80;;;;;;;19.30;52.72;96574.23;225742;1273;22545;-77
2024/03/27 15:20:44;;;;;;;2.70;1.10;;;;;;;19.11;52.61;96577.19;225890;1274;22564;-76
2024/03/27 15:25:46;;;;;;;2.70;1.00;;;;;;;18.89;52.60;96578.77;225889;1275;22577;-76
2024/03/27 15:30:48;;;;;;;1.40;1.30;;;;;;;18.58;52.64;96570.99;225754;1278;24225;-77
2024/03/27 15:35:50;;;;;;;2.90;1.40;;;;;;;18.26;52.99;96570.15;225788;1276;24238;-77
2024/03/27 15:40:56;;;;;;;1.80;1.10;;;;;;;18.04;53.11;96569.05;225993;1276;22548;-76
2024/03/27 15:45:58;;;;;;;1.90;1.20;;;;;;;17.90;53.41;96571.27;225918;1276;22556;-77
2024/03/27 15:50:59;;;;;;;3.70;1.90;;;;;;;17.79;53.71;96574.54;225937;1276;22625;-76
2024/03/27 15:56:01;;;;;;;1.50;1.40;;;;;;;17.58;53.85;96580.23;226018;1273;24277;-78
2024/03/27 16:01:03;;;;;;;4.00;1.60;;;;;;;17.27;54.14;96586.27;226193;1273;22554;-76
2024/03/27 16:06:05;;;;;;;3.70;2.10;;;;;;;17.00;54.60;96585.45;226266;1254;22536;-76
2024/03/27 16:11:08;;;;;;;3.30;2.00;;;;;;;16.72;54.97;96588.05;226209;1269;22535;-76
2024/03/27 16:16:09;;;;;;;3.20;1.80;;;;;;;16.40;55.18;96585.41;226386;1276;22596;-76
2024/03/27 16:21:11;;;;;;;3.10;2.10;;;;;;;16.12;55.73;96582.95;226339;1270;23066;-77
2024/03/27 16:26:13;;;;;;;3.10;2.20;;;;;;;15.87;56.17;96582.33;226207;1276;22578;-77
2024/03/27 16:31:15;;;;;;;3.10;2.20;;;;;;;15.66;56.51;96574.41;226319;1273;22577;-79
2024/03/27 16:36:17;;;;;;;4.00;2.20;;;;;;;15.43;56.86;96576.13;226278;1276;22631;-79
2024/03/27 16:41:18;;;;;;;2.20;1.70;;;;;;;15.21;57.26;96573.77;226280;1270;22557;-79
2024/03/27 16:46:20;;;;;;;3.50;2.20;;;;;;;15.01;57.59;96567.40;226390;1272;24228;-79
2024/03/27 16:51:22;;;;;;;4.10;2.20;;;;;;;14.82;57.86;96572.92;226234;1276;25428;-79
2024/03/27 16:56:25;;;;;;;4.00;2.20;;;;;;;14.63;57.97;96564.81;226294;1272;22693;-79
2024/03/27 17:01:27;;;;;;;3.10;1.70;;;;;;;14.46;58.51;96569.24;226388;1273;22548;-79
2024/03/27 17:06:30;;;;;;;5.50;2.10;;;;;;;14.28;59.00;96575.27;226364;1276;22538;-79
2024/03/27 17:11:31;;;;;;;2.60;2.10;;;;;;;14.14;59.42;96592.79;226260;1273;22529;-79
2024/03/27 17:16:33;;;;;;;2.90;2.20;;;;;;;13.98;59.64;96599.94;225952;1267;22529;-79
2024/03/27 17:21:35;;;;;;;4.10;2.70;;;;;;;13.84;60.00;96596.57;226163;1270;22659;-79
2024/03/27 17:26:37;;;;;;;5.00;3.40;;;;;;;13.66;60.47;96594.61;226089;1263;22553;-81
2024/03/27 17:31:39;;;;;;;9.40;4.40;;;;;;;13.51;60.96;96599.61;226259;1255;22543;-80
2024/03/27 17:36:41;;;;;;;8.00;3.80;;;;;;;13.36;61.04;96596.20;226218;1270;22679;-81
2024/03/27 17:41:42;;;;;;;5.60;4.00;;;;;;;13.21;61.65;96600.70;226198;1276;22564;-78
2024/03/27 17:46:46;;;;;;;6.90;4.40;;;;;;;13.09;61.88;96602.57;226336;1263;22557;-80
2024/03/27 17:51:48;;;;;;;9.80;5.20;;;;;;;12.98;62.12;96606.38;226391;1273;24429;-80
2024/03/27 17:56:50;;;;;;;9.30;5.00;;;;;;;12.88;62.29;96616.34;226354;1263;22596;-80
2024/03/27 18:01:52;;;;;;;8.50;4.40;;;;;;;12.79;62.47;96619.09;226400;1273;23067;-81
2024/03/27 18:06:53;;;;;;;10.00;4.00;;;;;;;12.70;62.46;96614.15;226280;1276;22518;-81
2024/03/27 18:11:55;;;;;;;5.40;3.80;;;;;;;12.63;62.70;96611.13;226285;1264;22606;-80
2024/03/27 18:17:01;;;;;;;5.50;3.70;;;;;;;12.58;63.00;96607.93;226427;1271;22561;-81
2024/03/27 18:22:03;;;;;;;5.10;3.70;;;;;;;12.50;63.01;96605.74;226452;1273;22540;-82
2024/03/27 18:27:05;;;;;;;5.40;3.90;;;;;;;12.43;63.24;96604.31;226160;1276;24283;-81
2024/03/27 18:32:07;;;;;;;7.10;3.40;;;;;;;12.40;63.49;96608.05;226360;1276;22549;-82
2024/03/27 18:37:11;;;;;;;4.80;3.30;;;;;;;12.34;63.48;96608.10;226178;1276;22542;-81
2024/03/27 18:42:13;;;;;;;7.00;3.70;;;;;;;12.31;63.62;96606.08;226383;1273;22606;-81
2024/03/27 18:47:15;;;;;;;6.50;4.20;;;;;;;12.30;63.74;96606.34;226352;1276;22542;-81
2024/03/27 18:52:17;;;;;;;7.90;4.70;;;;;;;12.26;63.72;96603.22;226402;1270;23908;-81
2024/03/27 18:57:20;;;;;;;8.80;6.00;;;;;;;12.22;64.04;96600.79;226252;1266;22817;-80
2024/03/27 19:02:24;;;;;;;11.80;5.60;;;;;;;12.17;63.88;96604.89;226318;1275;22531;-81
2024/03/27 19:07:25;;;;;;;9.00;5.40;;;;;;;12.13;64.19;96597.98;226591;1275;22572;-81
2024/03/27 19:12:31;;;;;;;9.00;5.60;;;;;;;12.02;64.59;96592.67;226648;1276;22557;-81
2024/03/27 19:17:33;;;;;;;9.10;6.10;;;;;;;11.87;64.73;96592.64;226653;1269;22546;-82
2024/03/27 19:22:36;;;;;;;8.50;5.70;;;;;;;11.73;65.09;96601.00;226473;1276;22563;-81
2024/03/27 19:27:37;;;;;;;9.00;6.20;;;;;;;11.57;65.61;96602.02;226436;1272;22574;-82
2024/03/27 19:32:39;;;;;;;9.80;6.00;;;;;;;11.43;65.71;96601.39;226390;1276;22538;-81
2024/03/27 19:37:41;;;;;;;7.70;5.10;;;;;;;11.27;66.33;96592.36;226531;1276;22486;-82
2024/03/27 19:42:45;;;;;;;6.80;5.00;;;;;;;11.14;66.77;96592.63;226516;1276;22538;-82
2024/03/27 19:47:47;;;;;;;8.40;6.00;;;;;;;11.03;67.03;96590.69;226481;1275;22556;-81
2024/03/27 19:52:49;;;;;;;11.10;7.10;;;;;;;10.93;67.18;96591.36;226407;1273;22540;-81
2024/03/27 19:57:50;;;;;;;14.10;8.00;;;;;;;10.82;67.44;96598.17;226596;1273;22560;-82
2024/03/27 20:02:52;;;;;;;11.80;8.70;;;;;;;10.71;67.67;96596.75;226727;1272;24175;-82
2024/03/27 20:07:54;;;;;;;13.50;7.50;;;;;;;10.61;67.86;96588.52;226801;1272;22502;-82
2024/03/27 20:12:56;;;;;;;10.20;6.00;;;;;;;10.57;68.64;96580.16;226814;1273;22587;-82
2024/03/27 20:17:58;;;;;;;8.80;5.50;;;;;;;10.72;68.90;96568.86;226757;1266;22571;-83
2024/03/27 20:23:00;;;;;;;8.70;5.40;;;;;;;10.84;69.03;96560.38;226831;1256;22557;-82
2024/03/27 20:28:02;;;;;;;7.80;5.10;;;;;;;10.91;68.88;96551.45;226823;1257;22677;-81
2024/03/27 20:33:05;;;;;;;10.70;6.30;;;;;;;10.98;69.06;96550.25;226834;1272;22556;-81
2024/03/27 20:38:07;;;;;;;13.50;7.70;;;;;;;11.02;68.86;96545.38;226889;1263;22538;-81
2024/03/27 20:43:11;;;;;;;9.70;5.90;;;;;;;11.04;68.91;96533.57;226841;1272;22534;-80
2024/03/27 20:48:12;;;;;;;10.40;7.50;;;;;;;11.03;68.78;96521.45;226856;1272;22536;-81
2024/03/27 20:53:15;;;;;;;14.60;7.70;;;;;;;11.02;68.81;96520.28;226701;1273;25074;-81
2024/03/27 20:58:17;;;;;;;11.60;6.40;;;;;;;11.09;69.24;96520.23;226683;1273;22579;-82
2024/03/27 21:03:18;;;;;;;9.70;5.80;;;;;;;11.24;68.92;96515.95;226864;1274;25276;-82
2024/03/27 21:08:20;;;;;;;8.30;5.50;;;;;;;11.39;69.06;96519.96;226905;1269;23708;-83
2024/03/27 21:13:22;;;;;;;7.90;4.90;;;;;;;11.52;68.59;96515.71;226984;1272;22644;-82
2024/03/27 21:18:25;;;;;;;11.20;5.40;;;;;;;11.62;68.70;96508.03;226933;1272;25390;-82
2024/03/27 21:23:27;;;;;;;10.10;5.40;;;;;;;11.65;68.20;96499.66;226825;1270;22554;-82
2024/03/27 21:28:29;;;;;;;11.10;5.70;;;;;;;11.65;68.16;96487.16;226926;1273;22594;-82
2024/03/27 21:33:30;;;;;;;7.10;4.90;;;;;;;11.60;68.04;96476.32;226808;1266;22533;-82
2024/03/27 21:38:32;;;;;;;9.20;5.50;;;;;;;11.54;67.95;96477.34;226831;1270;22607;-81
2024/03/27 21:43:34;;;;;;;9.00;6.30;;;;;;;11.45;68.45;96473.54;226880;1272;22545;-81
2024/03/27 21:48:39;;;;;;;9.40;5.90;;;;;;;11.34;68.53;96469.52;226807;1269;22728;-82
2024/03/27 21:53:41;;;;;;;10.20;6.00;;;;;;;11.19;68.85;96472.64;226799;1270;22556;-82
2024/03/27 21:58:44;;;;;;;11.40;6.10;;;;;;;11.03;68.91;96471.58;226749;1272;22570;-81
2024/03/27 22:03:46;;;;;;;10.00;7.20;;;;;;;10.87;69.51;96457.30;226836;1272;22553;-81
2024/03/27 22:08:51;;;;;;;9.60;7.20;;;;;;;10.68;69.11;96447.45;226761;1273;22555;-81
2024/03/27 22:13:53;;;;;;;10.70;6.90;;;;;;;10.49;69.70;96449.54;226726;1270;22521;-81
2024/03/27 22:18:55;;;;;;;11.30;6.90;;;;;;;10.31;70.00;96447.34;226715;1272;22567;-83
2024/03/27 22:23:57;;;;;;;11.30;7.30;;;;;;;10.19;70.48;96440.15;226765;1272;22534;-80
2024/03/27 22:28:59;;;;;;;13.30;7.80;;;;;;;10.09;70.78;96431.45;226939;1266;22569;-81
2024/03/27 22:34:01;;;;;;;15.60;8.30;;;;;;;10.01;71.00;96425.36;226908;1273;24229;-82
2024/03/27 22:39:03;;;;;;;10.00;7.00;;;;;;;9.95;71.39;96422.73;226990;1273;22551;-82
2024/03/27 22:44:04;;;;;;;12.90;8.30;;;;;;;9.88;71.56;96412.77;226822;1273;23448;-81
2024/03/27 22:49:07;;;;;;;12.10;7.90;;;;;;;9.84;71.91;96404.59;226990;1273;22551;-81
2024/03/27 22:54:08;;;;;;;14.40;8.30;;;;;;;9.81;72.31;96392.73;226881;1269;22538;-80
2024/03/27 22:59:10;;;;;;;10.40;7.40;;;;;;;9.75;72.20;96381.31;226762;1269;25414;-81
2024/03/27 23:04:12;;;;;;;11.20;7.30;;;;;;;9.71;72.65;96381.35;226689;1267;22533;-82
2024/03/27 23:09:16;;;;;;;10.90;7.90;;;;;;;9.71;72.88;96374.44;226797;1270;22553;-82
2024/03/27 23:14:18;;;;;;;11.20;7.00;;;;;;;9.71;72.82;96373.23;226736;1273;22565;-81
2024/03/27 23:19:19;;;;;;;11.50;7.30;;;;;;;9.68;73.12;96365.80;226864;1273;22641;-80
2024/03/27 23:24:21;;;;;;;8.70;6.90;;;;;;;9.65;73.31;96356.32;226765;1257;25335;-81
2024/03/27 23:29:23;;;;;;;11.30;7.70;;;;;;;9.61;73.58;96353.74;226733;1251;22565;-80
2024/03/27 23:34:25;;;;;;;11.20;7.70;;;;;;;9.59;73.47;96355.61;226851;1266;24280;-81
2024/03/27 23:39:30;;;;;;;13.60;7.60;;;;;;;9.59;73.75;96348.92;226850;1272;25307;-80